createdAt,value
2019-05-21T00:01:06.825Z,95260.74
2019-05-21T00:02:14.045Z,95255.53
2019-05-21T00:03:22.098Z,95250.81
2019-05-21T00:04:29.334Z,95255.05
2019-05-21T00:05:37.300Z,95256.02
2019-05-21T00:06:44.508Z,95250.33
2019-05-21T00:07:52.475Z,95259.93
2019-05-21T00:08:59.695Z,95257.81
2019-05-21T00:10:08.155Z,95253.91
2019-05-21T00:11:15.559Z,95258.78
2019-05-21T00:12:24.586Z,95259.43
2019-05-21T00:13:31.807Z,95257.80
2019-05-21T00:14:39.769Z,95261.86
2019-05-21T00:15:47.007Z,95257.17
2019-05-21T00:16:54.970Z,95268.08
2019-05-21T00:18:02.210Z,95263.36
2019-05-21T00:19:10.169Z,95254.73
2019-05-21T00:20:18.691Z,95259.45
2019-05-21T00:21:26.648Z,95270.52
2019-05-21T00:22:33.924Z,95267.09
2019-05-21T00:23:41.913Z,95267.73
2019-05-21T00:24:49.541Z,95272.12
2019-05-21T00:25:57.470Z,95274.08
2019-05-21T00:27:04.695Z,95268.05
2019-05-21T00:28:41.631Z,95268.54
2019-05-21T00:30:42.875Z,95264.15
2019-05-21T00:32:44.199Z,95270.83
2019-05-21T00:34:45.747Z,95267.37
2019-05-21T00:36:48.616Z,95268.95
2019-05-21T00:38:51.952Z,95277.16
2019-05-21T00:40:52.660Z,95281.95
2019-05-21T00:42:01.462Z,95279.27
2019-05-21T00:43:10.772Z,95280.50
2019-05-21T00:44:18.747Z,95286.70
2019-05-21T00:45:25.958Z,95282.53
2019-05-21T00:46:33.921Z,95281.41
2019-05-21T00:47:41.356Z,95277.88
2019-05-21T00:48:49.333Z,95283.94
2019-05-21T00:49:56.575Z,95283.15
2019-05-21T00:51:04.521Z,95287.41
2019-05-21T00:52:11.952Z,95284.03
2019-05-21T00:53:19.914Z,95288.63
2019-05-21T00:54:27.333Z,95290.25
2019-05-21T00:55:35.279Z,95284.73
2019-05-21T00:56:42.505Z,95285.23
2019-05-21T00:57:50.466Z,95282.30
2019-05-21T00:58:57.676Z,95287.19
2019-05-21T01:00:06.377Z,95274.20
2019-05-21T01:01:15.175Z,95282.67
2019-05-21T01:02:23.118Z,95284.11
2019-05-21T01:03:30.344Z,95277.78
2019-05-21T01:04:38.305Z,95282.34
2019-05-21T01:05:46.583Z,95280.07
2019-05-21T01:06:54.533Z,95276.16
2019-05-21T01:08:02.834Z,95278.61
2019-05-21T01:09:10.797Z,95279.09
2019-05-21T01:10:18.019Z,95276.98
2019-05-21T01:11:25.982Z,95274.38
2019-05-21T01:12:33.220Z,95268.20
2019-05-21T01:13:41.181Z,95281.88
2019-05-21T01:14:48.423Z,95288.38
2019-05-21T01:15:56.384Z,95290.02
2019-05-21T01:17:03.643Z,95281.06
2019-05-21T01:18:11.612Z,95285.45
2019-05-21T01:19:18.838Z,95288.87
2019-05-21T01:20:26.816Z,95288.38
2019-05-21T01:21:34.074Z,95284.96
2019-05-21T01:22:43.098Z,95288.71
2019-05-21T01:23:50.291Z,95289.20
2019-05-21T01:24:58.252Z,95286.11
2019-05-21T01:26:05.748Z,95289.38
2019-05-21T01:27:13.692Z,95282.86
2019-05-21T01:28:20.919Z,95286.77
2019-05-21T01:29:28.867Z,95290.97
2019-05-21T01:30:36.090Z,95287.40
2019-05-21T01:31:44.126Z,95297.80
2019-05-21T01:32:51.351Z,95293.41
2019-05-21T01:33:59.312Z,95293.27
2019-05-21T01:35:16.793Z,95293.27
2019-05-21T01:36:16.542Z,95287.23
2019-05-21T01:37:23.748Z,95287.40
2019-05-21T01:38:31.695Z,95287.72
2019-05-21T01:39:38.922Z,95289.03
2019-05-21T01:40:46.868Z,95286.75
2019-05-21T01:41:54.076Z,95291.63
2019-05-21T01:43:03.436Z,95292.94
2019-05-21T01:44:10.943Z,95287.72
2019-05-21T01:45:18.920Z,95285.77
2019-05-21T01:46:26.157Z,95285.95
2019-05-21T01:47:34.121Z,95291.16
2019-05-21T01:48:41.361Z,95294.58
2019-05-21T01:49:49.292Z,95287.73
2019-05-21T01:50:56.502Z,95292.13
2019-05-21T01:52:04.574Z,95291.64
2019-05-21T01:53:11.778Z,95290.50
2019-05-21T01:54:19.740Z,95292.62
2019-05-21T01:55:26.954Z,95286.11
2019-05-21T01:56:35.020Z,95281.06
2019-05-21T01:57:42.300Z,95282.52
2019-05-21T01:58:50.252Z,95286.27
2019-05-21T01:59:58.538Z,95291.95
2019-05-21T02:01:06.603Z,95289.51
2019-05-21T02:02:13.817Z,95283.16
2019-05-21T02:03:21.774Z,95290.15
2019-05-21T02:04:29.002Z,95289.82
2019-05-21T02:05:36.991Z,95278.75
2019-05-21T02:06:44.591Z,95278.42
2019-05-21T02:07:52.617Z,95296.16
2019-05-21T02:08:59.853Z,95285.59
2019-05-21T02:10:09.479Z,95288.69
2019-05-21T02:11:16.689Z,95287.88
2019-05-21T02:12:24.667Z,95281.85
2019-05-21T02:13:31.862Z,95285.11
2019-05-21T02:14:39.813Z,95279.09
2019-05-21T02:15:47.006Z,95290.32
2019-05-21T02:16:54.977Z,95287.06
2019-05-21T02:18:02.202Z,95283.48
2019-05-21T02:19:10.150Z,95294.53
2019-05-21T02:20:18.529Z,95292.91
2019-05-21T02:21:26.552Z,95287.37
2019-05-21T02:22:33.850Z,95288.34
2019-05-21T02:23:41.811Z,95287.68
2019-05-21T02:24:49.006Z,95288.16
2019-05-21T02:25:56.968Z,95287.50
2019-05-21T02:27:04.197Z,95291.08
2019-05-21T02:28:13.234Z,95296.80
2019-05-21T02:29:20.460Z,95289.30
2019-05-21T02:30:28.406Z,95291.09
2019-05-21T02:31:35.638Z,95290.75
2019-05-21T02:32:43.582Z,95286.85
2019-05-21T02:33:50.803Z,95285.55
2019-05-21T02:34:58.768Z,95286.19
2019-05-21T02:36:05.991Z,95292.21
2019-05-21T02:37:13.952Z,95294.00
2019-05-21T02:38:21.175Z,95291.06
2019-05-21T02:39:29.156Z,95294.63
2019-05-21T02:40:36.376Z,95290.40
2019-05-21T02:41:44.339Z,95290.89
2019-05-21T02:42:51.637Z,95290.89
2019-05-21T02:43:59.585Z,95296.09
2019-05-21T02:45:08.913Z,95294.78
2019-05-21T02:46:16.885Z,95292.19
2019-05-21T02:47:24.117Z,95294.12
2019-05-21T02:48:32.072Z,95300.63
2019-05-21T02:49:39.297Z,95298.55
2019-05-21T02:50:47.276Z,95305.35
2019-05-21T02:51:54.498Z,95299.03
2019-05-21T02:53:02.461Z,95305.53
2019-05-21T02:54:09.670Z,95301.14
2019-05-21T02:55:17.811Z,95300.00
2019-05-21T02:56:25.038Z,95298.70
2019-05-21T02:57:42.674Z,95300.81
2019-05-21T02:58:49.901Z,95295.61
2019-05-21T02:59:59.048Z,95301.27
2019-05-21T03:01:28.252Z,95302.25
2019-05-21T03:02:39.121Z,95300.28
2019-05-21T03:03:47.189Z,95296.36
2019-05-21T03:04:54.396Z,95295.54
2019-05-21T03:06:13.551Z,95298.95
2019-05-21T03:07:20.444Z,95298.28
2019-05-21T03:08:28.396Z,95296.66
2019-05-21T03:09:35.603Z,95296.51
2019-05-21T03:10:43.580Z,95297.81
2019-05-21T03:11:50.808Z,95304.80
2019-05-21T03:12:58.769Z,95305.45
2019-05-21T03:14:05.990Z,95305.45
2019-05-21T03:15:14.251Z,95305.76
2019-05-21T03:16:21.481Z,95306.45
2019-05-21T03:17:29.446Z,95305.48
2019-05-21T03:18:36.663Z,95307.12
2019-05-21T03:19:44.714Z,95306.63
2019-05-21T03:20:51.940Z,95309.56
2019-05-21T03:21:59.901Z,95318.19
2019-05-21T03:23:07.125Z,95313.31
2019-05-21T03:24:15.093Z,95315.43
2019-05-21T03:25:22.312Z,95315.91
2019-05-21T03:26:30.292Z,95319.33
2019-05-21T03:27:38.566Z,95318.03
2019-05-21T03:28:46.512Z,95318.52
2019-05-21T03:29:53.735Z,95314.28
2019-05-21T03:31:01.701Z,95316.58
2019-05-21T03:32:08.967Z,95315.94
2019-05-21T03:33:16.984Z,95317.23
2019-05-21T03:34:24.201Z,95312.04
2019-05-21T03:35:32.145Z,95317.55
2019-05-21T03:36:39.370Z,95311.55
2019-05-21T03:37:47.349Z,95308.14
2019-05-21T03:38:54.572Z,95318.06
2019-05-21T03:40:02.566Z,95315.94
2019-05-21T03:41:09.771Z,95318.55
2019-05-21T03:42:17.715Z,95316.23
2019-05-21T03:43:24.929Z,95323.08
2019-05-21T03:44:34.483Z,95316.57
2019-05-21T03:45:41.691Z,95315.27
2019-05-21T03:46:49.671Z,95325.34
2019-05-21T03:47:56.867Z,95315.75
2019-05-21T03:49:04.842Z,95324.38
2019-05-21T03:50:13.460Z,95321.29
2019-05-21T03:51:21.426Z,95326.98
2019-05-21T03:52:28.678Z,95325.67
2019-05-21T03:53:36.653Z,95324.86
2019-05-21T03:54:43.878Z,95319.98
2019-05-21T03:55:51.839Z,95327.16
2019-05-21T03:56:59.063Z,95325.19
2019-05-21T03:58:07.026Z,95320.14
2019-05-21T03:59:14.253Z,95333.97
2019-05-21T04:00:22.687Z,95325.86
2019-05-21T04:01:29.961Z,95328.13
2019-05-21T04:02:37.954Z,95326.34
2019-05-21T04:03:45.179Z,95328.95
2019-05-21T04:04:53.123Z,95329.43
2019-05-21T04:06:00.339Z,95335.94
2019-05-21T04:07:08.312Z,95332.52
2019-05-21T04:08:15.537Z,95331.70
2019-05-21T04:09:23.483Z,95330.89
2019-05-21T04:10:30.693Z,95336.09
2019-05-21T04:11:38.641Z,95331.70
2019-05-21T04:13:04.757Z,95333.48
2019-05-21T04:14:13.613Z,95332.19
2019-05-21T04:15:22.489Z,95330.70
2019-05-21T04:16:46.337Z,95330.70
2019-05-21T04:18:02.584Z,95335.42
2019-05-21T04:19:13.726Z,95334.43
2019-05-21T04:20:21.761Z,95332.92
2019-05-21T04:21:28.959Z,95337.67
2019-05-21T04:22:39.405Z,95333.61
2019-05-21T04:23:46.645Z,95341.08
2019-05-21T04:24:54.589Z,95336.82
2019-05-21T04:26:02.779Z,95338.48
2019-05-21T04:27:10.738Z,95336.00
2019-05-21T04:28:17.954Z,95340.39
2019-05-21T04:29:25.901Z,95337.97
2019-05-21T04:30:33.214Z,95334.07
2019-05-21T04:31:41.197Z,95337.30
2019-05-21T04:32:48.617Z,95339.91
2019-05-21T04:33:56.679Z,95339.42
2019-05-21T04:35:03.889Z,95339.78
2019-05-21T04:36:11.839Z,95344.02
2019-05-21T04:37:19.077Z,95342.56
2019-05-21T04:38:27.025Z,95343.05
2019-05-21T04:39:34.429Z,95342.90
2019-05-21T04:40:42.391Z,95355.27
2019-05-21T04:41:49.598Z,95348.28
2019-05-21T04:43:01.672Z,95340.47
2019-05-21T04:44:06.579Z,95352.36
2019-05-21T04:45:15.149Z,95351.87
2019-05-21T04:46:22.394Z,95351.70
2019-05-21T04:47:30.378Z,95351.70
2019-05-21T04:48:37.577Z,95361.77
2019-05-21T04:49:45.543Z,95349.58
2019-05-21T04:50:52.779Z,95350.58
2019-05-21T04:52:00.735Z,95354.48
2019-05-21T04:53:07.958Z,95354.63
2019-05-21T04:54:17.011Z,95344.22
2019-05-21T04:55:24.250Z,95359.84
2019-05-21T04:56:32.195Z,95349.91
2019-05-21T04:57:39.407Z,95353.15
2019-05-21T04:58:47.398Z,95353.63
2019-05-21T04:59:54.608Z,95356.72
2019-05-21T05:01:02.630Z,95358.50
2019-05-21T05:02:09.843Z,95358.98
2019-05-21T05:03:17.831Z,95358.17
2019-05-21T05:04:25.073Z,95362.41
2019-05-21T05:05:33.043Z,95352.82
2019-05-21T05:06:40.275Z,95365.34
2019-05-21T05:07:48.230Z,95365.01
2019-05-21T05:08:55.431Z,95365.01
2019-05-21T05:10:03.378Z,95359.47
2019-05-21T05:11:10.589Z,95366.80
2019-05-21T05:12:18.551Z,95365.16
2019-05-21T05:13:25.763Z,95358.33
2019-05-21T05:14:33.709Z,95367.58
2019-05-21T05:15:41.983Z,95362.02
2019-05-21T05:16:49.932Z,95367.37
2019-05-21T05:17:57.186Z,95366.58
2019-05-21T05:19:05.162Z,95370.16
2019-05-21T05:20:12.655Z,95376.98
2019-05-21T05:21:20.608Z,95369.67
2019-05-21T05:22:27.814Z,95370.48
2019-05-21T05:23:35.776Z,95367.55
2019-05-21T05:24:42.988Z,95369.67
2019-05-21T05:25:50.923Z,95376.98
2019-05-21T05:26:58.148Z,95372.91
2019-05-21T05:28:06.100Z,95370.64
2019-05-21T05:29:13.364Z,95374.08
2019-05-21T05:30:21.354Z,95371.94
2019-05-21T05:31:28.579Z,95380.10
2019-05-21T05:32:36.525Z,95372.78
2019-05-21T05:33:43.737Z,95371.00
2019-05-21T05:34:51.723Z,95377.34
2019-05-21T05:36:00.024Z,95376.05
2019-05-21T05:37:07.967Z,95384.00
2019-05-21T05:38:15.191Z,95381.04
2019-05-21T05:39:23.168Z,95369.00
2019-05-21T05:40:30.393Z,95380.22
2019-05-21T05:41:38.370Z,95381.04
2019-05-21T05:42:45.580Z,95380.10
2019-05-21T05:43:53.552Z,95375.72
2019-05-21T05:45:00.768Z,95376.05
2019-05-21T05:46:08.748Z,95372.15
2019-05-21T05:47:15.970Z,95375.56
2019-05-21T05:48:24.144Z,95372.15
2019-05-21T05:49:36.233Z,95370.36
2019-05-21T05:50:45.724Z,95369.06
2019-05-21T05:51:52.948Z,95378.65
2019-05-21T05:53:00.908Z,95375.38
2019-05-21T05:54:08.134Z,95376.20
2019-05-21T05:55:16.305Z,95370.18
2019-05-21T05:56:23.531Z,95378.65
2019-05-21T05:57:31.506Z,95376.20
2019-05-21T05:58:38.733Z,95389.87
2019-05-21T05:59:46.697Z,95379.62
2019-05-21T06:00:53.906Z,95387.75
2019-05-21T06:02:01.855Z,95387.09
2019-05-21T06:03:09.112Z,95384.94
2019-05-21T06:04:17.091Z,95382.83
2019-05-21T06:05:24.309Z,95389.33
2019-05-21T06:06:32.271Z,95385.42
2019-05-21T06:07:39.482Z,95391.33
2019-05-21T06:08:47.478Z,95392.63
2019-05-21T06:09:54.675Z,95383.52
2019-05-21T06:11:02.618Z,95389.87
2019-05-21T06:12:10.787Z,95379.47
2019-05-21T06:13:19.812Z,95388.57
2019-05-21T06:14:27.044Z,95387.75
2019-05-21T06:15:35.827Z,95382.55
2019-05-21T06:16:43.052Z,95391.17
2019-05-21T06:17:51.018Z,95387.91
2019-05-21T06:18:58.258Z,95388.84
2019-05-21T06:20:07.251Z,95390.63
2019-05-21T06:21:14.453Z,95390.30
2019-05-21T06:22:22.422Z,95391.59
2019-05-21T06:23:29.654Z,95395.02
2019-05-21T06:24:37.595Z,95394.05
2019-05-21T06:25:44.821Z,95400.09
2019-05-21T06:26:53.068Z,95391.81
2019-05-21T06:28:00.292Z,95395.08
2019-05-21T06:29:08.259Z,95390.36
2019-05-21T06:30:17.580Z,95397.19
2019-05-21T06:31:25.576Z,95394.11
2019-05-21T06:32:32.800Z,95401.77
2019-05-21T06:33:40.763Z,95398.34
2019-05-21T06:34:48.761Z,95403.06
2019-05-21T06:35:56.895Z,95407.30
2019-05-21T06:37:04.133Z,95406.97
2019-05-21T06:38:17.655Z,95405.52
2019-05-21T06:39:20.972Z,95401.61
2019-05-21T06:40:28.918Z,95416.41
2019-05-21T06:41:36.125Z,95409.56
2019-05-21T06:42:44.074Z,95406.14
2019-05-21T06:43:51.314Z,95411.83
2019-05-21T06:44:59.303Z,95406.63
2019-05-21T06:46:06.579Z,95410.05
2019-05-21T06:47:14.628Z,95418.34
2019-05-21T06:48:22.852Z,95416.89
2019-05-21T06:49:30.802Z,95420.13
2019-05-21T06:50:38.178Z,95416.70
2019-05-21T06:51:46.260Z,95416.52
2019-05-21T06:52:53.499Z,95418.30
2019-05-21T06:54:01.466Z,95417.61
2019-05-21T06:55:09.691Z,95421.20
2019-05-21T06:56:17.776Z,95422.66
2019-05-21T06:57:25.035Z,95420.05
2019-05-21T06:58:32.947Z,95418.75
2019-05-21T06:59:40.171Z,95426.89
2019-05-21T07:00:48.151Z,95416.97
2019-05-21T07:01:55.376Z,95424.59
2019-05-21T07:03:03.395Z,95428.02
2019-05-21T07:04:10.664Z,95425.41
2019-05-21T07:05:18.614Z,95425.41
2019-05-21T07:06:25.836Z,95416.79
2019-05-21T07:07:33.827Z,95423.80
2019-05-21T07:08:41.073Z,95422.51
2019-05-21T07:09:49.014Z,95426.89
2019-05-21T07:10:56.248Z,95435.00
2019-05-21T07:12:04.191Z,95430.31
2019-05-21T07:13:11.396Z,95430.61
2019-05-21T07:14:19.441Z,95431.91
2019-05-21T07:15:26.678Z,95436.81
2019-05-21T07:16:34.713Z,95433.39
2019-05-21T07:17:41.937Z,95430.45
2019-05-21T07:18:49.918Z,95432.09
2019-05-21T07:19:57.213Z,95440.38
2019-05-21T07:21:05.309Z,95433.88
2019-05-21T07:22:13.511Z,95440.38
2019-05-21T07:23:21.626Z,95435.66
2019-05-21T07:24:28.992Z,95442.98
2019-05-21T07:25:37.117Z,95436.81
2019-05-21T07:26:44.369Z,95436.30
2019-05-21T07:27:52.310Z,95437.59
2019-05-21T07:28:59.553Z,95442.02
2019-05-21T07:30:08.636Z,95433.88
2019-05-21T07:31:17.600Z,95443.80
2019-05-21T07:32:25.789Z,95441.34
2019-05-21T07:33:33.014Z,95437.45
2019-05-21T07:34:40.977Z,95438.41
2019-05-21T07:35:48.191Z,95440.53
2019-05-21T07:36:56.179Z,95444.91
2019-05-21T07:38:03.388Z,95443.61
2019-05-21T07:39:11.473Z,95438.75
2019-05-21T07:40:19.089Z,95450.30
2019-05-21T07:41:27.137Z,95442.98
2019-05-21T07:42:34.365Z,95446.70
2019-05-21T07:43:42.336Z,95450.81
2019-05-21T07:44:49.564Z,95450.81
2019-05-21T07:45:57.514Z,95447.59
2019-05-21T07:47:04.737Z,95449.22
2019-05-21T07:48:12.772Z,95449.07
2019-05-21T07:49:20.003Z,95450.03
2019-05-21T07:50:27.980Z,95449.55
2019-05-21T07:51:35.246Z,95456.88
2019-05-21T07:52:43.206Z,95452.48
2019-05-21T07:53:50.418Z,95451.19
2019-05-21T07:54:58.377Z,95448.59
2019-05-21T07:56:05.605Z,95449.41
2019-05-21T07:57:13.567Z,95456.72
2019-05-21T07:58:21.877Z,95453.79
2019-05-21T07:59:29.832Z,95452.97
2019-05-21T08:00:37.058Z,95449.55
2019-05-21T08:01:45.048Z,95452.16
2019-05-21T08:02:52.263Z,95456.54
2019-05-21T08:04:00.235Z,95453.13
2019-05-21T08:05:07.791Z,95454.91
2019-05-21T08:06:15.857Z,95451.48
2019-05-21T08:07:23.106Z,95458.33
2019-05-21T08:08:31.146Z,95451.00
2019-05-21T08:09:38.470Z,95453.94
2019-05-21T08:10:46.414Z,95451.67
2019-05-21T08:11:54.601Z,95459.33
2019-05-21T08:13:02.598Z,95458.84
2019-05-21T08:14:09.833Z,95463.41
2019-05-21T08:15:17.989Z,95461.45
2019-05-21T08:16:25.233Z,95462.59
2019-05-21T08:17:33.263Z,95465.05
2019-05-21T08:18:40.489Z,95466.69
2019-05-21T08:19:48.472Z,95464.42
2019-05-21T08:20:55.716Z,95470.11
2019-05-21T08:22:03.666Z,95462.30
2019-05-21T08:23:10.883Z,95474.34
2019-05-21T08:24:18.838Z,95471.59
2019-05-21T08:25:26.080Z,95469.32
2019-05-21T08:26:34.091Z,95478.77
2019-05-21T08:27:41.352Z,95470.95
2019-05-21T08:28:49.317Z,95482.18
2019-05-21T08:29:56.528Z,95483.48
2019-05-21T08:31:04.506Z,95488.84
2019-05-21T08:32:11.732Z,95491.59
2019-05-21T08:33:19.719Z,95487.34
2019-05-21T08:34:26.938Z,95486.05
2019-05-21T08:35:34.897Z,95485.72
2019-05-21T08:36:42.122Z,95489.28
2019-05-21T08:37:50.085Z,95490.25
2019-05-21T08:38:57.288Z,95486.69
2019-05-21T08:40:05.765Z,95491.41
2019-05-21T08:41:12.976Z,95487.98
2019-05-21T08:42:20.920Z,95491.25
2019-05-21T08:43:28.370Z,95490.44
2019-05-21T08:44:36.335Z,95495.16
2019-05-21T08:45:43.557Z,95499.39
2019-05-21T08:46:51.508Z,95496.31
2019-05-21T08:47:58.714Z,95495.34
2019-05-21T08:49:06.710Z,95493.56
2019-05-21T08:50:15.330Z,95497.31
2019-05-21T08:51:23.456Z,95494.22
2019-05-21T08:52:30.761Z,95498.77
2019-05-21T08:53:38.715Z,95497.47
2019-05-21T08:54:50.531Z,95498.46
2019-05-21T08:55:58.480Z,95495.05
2019-05-21T08:57:05.703Z,95501.06
2019-05-21T08:58:13.649Z,95494.86
2019-05-21T08:59:20.875Z,95499.91
2019-05-21T09:00:29.456Z,95499.28
2019-05-21T09:01:36.654Z,95506.45
2019-05-21T09:02:44.615Z,95503.37
2019-05-21T09:03:51.865Z,95501.10
2019-05-21T09:04:59.871Z,95503.89
2019-05-21T09:06:07.112Z,95509.09
2019-05-21T09:07:15.254Z,95506.34
2019-05-21T09:08:22.569Z,95502.44
2019-05-21T09:09:48.341Z,95510.55
2019-05-21T09:10:43.322Z,95503.55
2019-05-21T09:11:51.301Z,95504.70
2019-05-21T09:12:59.921Z,95506.64
2019-05-21T09:14:07.883Z,95504.03
2019-05-21T09:15:15.740Z,95512.81
2019-05-21T09:16:23.712Z,95505.48
2019-05-21T09:17:30.966Z,95505.16
2019-05-21T09:18:38.930Z,95502.22
2019-05-21T09:19:46.143Z,95505.64
2019-05-21T09:20:54.116Z,95511.52
2019-05-21T09:22:01.344Z,95504.52
2019-05-21T09:23:09.318Z,95508.76
2019-05-21T09:24:16.580Z,95508.12
2019-05-21T09:25:24.524Z,95511.84
2019-05-21T09:26:31.746Z,95508.28
2019-05-21T09:27:40.510Z,95508.45
2019-05-21T09:28:47.731Z,95508.31
2019-05-21T09:29:55.719Z,95512.88
2019-05-21T09:31:02.939Z,95513.88
2019-05-21T09:32:11.239Z,95509.49
2019-05-21T09:33:18.477Z,95513.73
2019-05-21T09:34:26.425Z,95521.84
2019-05-21T09:35:33.622Z,95516.64
2019-05-21T09:36:41.642Z,95520.06
2019-05-21T09:37:48.869Z,95517.45
2019-05-21T09:38:57.805Z,95518.75
2019-05-21T09:40:06.304Z,95518.45
2019-05-21T09:41:15.255Z,95522.66
2019-05-21T09:42:22.541Z,95523.14
2019-05-21T09:43:30.563Z,95522.66
2019-05-21T09:44:37.795Z,95528.69
2019-05-21T09:45:46.321Z,95520.55
2019-05-21T09:46:53.576Z,95521.55
2019-05-21T09:48:01.524Z,95524.63
2019-05-21T09:49:08.749Z,95526.27
2019-05-21T09:50:17.098Z,95528.87
2019-05-21T09:51:24.325Z,95532.25
2019-05-21T09:52:32.324Z,95527.87
2019-05-21T09:53:39.604Z,95527.38
2019-05-21T09:54:47.567Z,95527.72
2019-05-21T09:55:54.789Z,95534.08
2019-05-21T09:57:03.036Z,95532.14
2019-05-21T09:58:35.408Z,95533.44
2019-05-21T09:59:57.724Z,95529.38
2019-05-21T10:01:21.536Z,95531.95
2019-05-21T10:02:30.629Z,95534.71
2019-05-21T10:03:42.226Z,95535.04
2019-05-21T10:04:49.539Z,95533.73
2019-05-21T10:05:58.987Z,95537.31
2019-05-21T10:07:06.197Z,95540.09
2019-05-21T10:08:14.270Z,95539.95
2019-05-21T10:09:21.562Z,95537.19
2019-05-21T10:10:29.510Z,95539.65
2019-05-21T10:11:36.884Z,95539.98
2019-05-21T10:12:44.833Z,95542.92
2019-05-21T10:13:52.047Z,95543.55
2019-05-21T10:14:59.975Z,95554.15
2019-05-21T10:16:07.198Z,95547.16
2019-05-21T10:17:15.218Z,95552.06
2019-05-21T10:18:22.417Z,95553.70
2019-05-21T10:19:30.428Z,95547.04
2019-05-21T10:20:37.812Z,95550.45
2019-05-21T10:21:45.790Z,95558.94
2019-05-21T10:22:53.031Z,95555.36
2019-05-21T10:24:01.008Z,95552.91
2019-05-21T10:25:08.626Z,95553.58
2019-05-21T10:26:16.686Z,95554.73
2019-05-21T10:27:23.902Z,95559.30
2019-05-21T10:28:31.860Z,95559.97
2019-05-21T10:29:39.080Z,95558.33
2019-05-21T10:30:47.063Z,95555.75
2019-05-21T10:31:54.285Z,95557.39
2019-05-21T10:33:02.234Z,95561.14
2019-05-21T10:34:12.693Z,95551.54
2019-05-21T10:35:19.132Z,95558.27
2019-05-21T10:36:26.373Z,95557.93
2019-05-21T10:37:34.348Z,95563.47
2019-05-21T10:38:41.603Z,95562.98
2019-05-21T10:39:49.550Z,95563.32
2019-05-21T10:40:56.851Z,95565.44
2019-05-21T10:42:05.353Z,95563.66
2019-05-21T10:43:12.578Z,95562.66
2019-05-21T10:44:20.574Z,95566.56
2019-05-21T10:45:27.861Z,95567.23
2019-05-21T10:46:35.837Z,95567.23
2019-05-21T10:47:43.029Z,95568.53
2019-05-21T10:48:51.005Z,95572.77
2019-05-21T10:49:58.215Z,95575.05
2019-05-21T10:51:06.376Z,95572.10
2019-05-21T10:52:13.793Z,95569.34
2019-05-21T10:53:21.770Z,95568.69
2019-05-21T10:54:29.202Z,95567.05
2019-05-21T10:55:37.256Z,95573.56
2019-05-21T10:56:47.978Z,95573.08
2019-05-21T10:57:54.317Z,95574.98
2019-05-21T10:59:01.553Z,95575.47
2019-05-21T11:00:14.561Z,95579.53
2019-05-21T11:01:48.040Z,95575.29
2019-05-21T11:03:05.861Z,95576.74
2019-05-21T11:04:37.845Z,95584.05
2019-05-21T11:05:47.704Z,95584.34
2019-05-21T11:06:55.847Z,95584.50
2019-05-21T11:08:22.786Z,95587.28
2019-05-21T11:09:18.582Z,95594.31
2019-05-21T11:10:25.821Z,95591.55
2019-05-21T11:11:33.783Z,95589.92
2019-05-21T11:12:41.056Z,95590.59
2019-05-21T11:13:49.075Z,95591.89
2019-05-21T11:14:56.284Z,95592.71
2019-05-21T11:16:04.240Z,95592.71
2019-05-21T11:17:13.264Z,95599.38
2019-05-21T11:18:21.224Z,95594.50
2019-05-21T11:19:28.444Z,95589.95
2019-05-21T11:20:36.412Z,95597.46
2019-05-21T11:21:43.639Z,95596.52
2019-05-21T11:22:51.577Z,95596.86
2019-05-21T11:23:58.827Z,95598.16
2019-05-21T11:25:07.154Z,95598.64
2019-05-21T11:26:14.581Z,95601.25
2019-05-21T11:27:22.525Z,95603.86
2019-05-21T11:28:29.743Z,95603.37
2019-05-21T11:29:37.699Z,95609.40
2019-05-21T11:30:44.951Z,95611.52
2019-05-21T11:31:56.858Z,95612.34
2019-05-21T11:33:02.014Z,95611.34
2019-05-21T11:34:11.344Z,95611.52
2019-05-21T11:35:18.973Z,95612.83
2019-05-21T11:36:26.963Z,95610.70
2019-05-21T11:37:34.175Z,95612.16
2019-05-21T11:38:42.240Z,95613.80
2019-05-21T11:39:49.467Z,95615.09
2019-05-21T11:40:57.544Z,95618.03
2019-05-21T11:42:04.952Z,95611.86
2019-05-21T11:43:12.958Z,95615.42
2019-05-21T11:44:20.200Z,95622.27
2019-05-21T11:45:32.157Z,95616.42
2019-05-21T11:46:37.095Z,95617.09
2019-05-21T11:47:45.102Z,95620.70
2019-05-21T11:48:52.343Z,95624.94
2019-05-21T11:50:00.332Z,95619.06
2019-05-21T11:51:07.571Z,95620.55
2019-05-21T11:52:15.524Z,95623.00
2019-05-21T11:53:22.747Z,95622.84
2019-05-21T11:54:30.712Z,95631.81
2019-05-21T11:55:37.941Z,95626.60
2019-05-21T11:56:45.991Z,95631.33
2019-05-21T11:57:53.211Z,95631.81
2019-05-21T11:59:01.189Z,95629.20
2019-05-21T12:00:09.479Z,95633.78
2019-05-21T12:01:17.432Z,95640.78
2019-05-21T12:02:24.652Z,95637.36
2019-05-21T12:03:32.599Z,95632.30
2019-05-21T12:04:39.826Z,95638.81
2019-05-21T12:05:47.875Z,95642.58
2019-05-21T12:06:55.509Z,95642.23
2019-05-21T12:08:03.467Z,95646.63
2019-05-21T12:09:10.707Z,95644.84
2019-05-21T12:10:21.088Z,95653.00
2019-05-21T12:11:28.270Z,95655.78
2019-05-21T12:12:36.211Z,95648.78
2019-05-21T12:13:43.407Z,95652.03
2019-05-21T12:14:51.363Z,95649.75
2019-05-21T12:15:58.582Z,95644.88
2019-05-21T12:17:06.631Z,95650.75
2019-05-21T12:18:13.842Z,95656.78
2019-05-21T12:19:21.795Z,95660.20
2019-05-21T12:20:36.735Z,95654.66
2019-05-21T12:21:38.794Z,95661.18
2019-05-21T12:22:46.052Z,95660.03
2019-05-21T12:23:54.062Z,95654.00
2019-05-21T12:25:01.254Z,95657.09
2019-05-21T12:26:09.212Z,95655.45
2019-05-21T12:27:16.436Z,95660.18
2019-05-21T12:28:24.392Z,95661.00
2019-05-21T12:29:34.160Z,95658.39
2019-05-21T12:30:41.384Z,95663.45
2019-05-21T12:31:48.629Z,95660.36
2019-05-21T12:32:56.573Z,95661.36
2019-05-21T12:34:03.999Z,95669.52
2019-05-21T12:35:13.457Z,95667.91
2019-05-21T12:36:20.881Z,95669.36
2019-05-21T12:37:28.820Z,95677.02
2019-05-21T12:38:36.112Z,95672.63
2019-05-21T12:39:44.068Z,95680.30
2019-05-21T12:40:52.271Z,95680.78
2019-05-21T12:42:00.262Z,95684.70
2019-05-21T12:43:07.473Z,95686.48
2019-05-21T12:44:15.433Z,95687.79
2019-05-21T12:45:22.948Z,95688.61
2019-05-21T12:46:30.910Z,95686.97
2019-05-21T12:47:38.173Z,95687.94
2019-05-21T12:48:46.121Z,95690.88
2019-05-21T12:49:53.350Z,95693.34
2019-05-21T12:51:01.298Z,95693.82
2019-05-21T12:52:08.690Z,95695.45
2019-05-21T12:53:16.948Z,95692.36
2019-05-21T12:54:24.282Z,95695.45
2019-05-21T12:55:32.240Z,95706.55
2019-05-21T12:56:40.977Z,95699.70
2019-05-21T12:57:49.391Z,95703.61
2019-05-21T12:58:56.618Z,95700.19
2019-05-21T13:00:04.925Z,95701.64
2019-05-21T13:01:12.435Z,95707.67
2019-05-21T13:02:21.839Z,95701.00
2019-05-21T13:03:29.048Z,95701.16
2019-05-21T13:04:37.025Z,95707.52
2019-05-21T13:05:44.251Z,95706.70
2019-05-21T13:06:52.211Z,95709.65
2019-05-21T13:07:59.440Z,95710.13
2019-05-21T13:09:09.395Z,95709.47
2019-05-21T13:10:16.979Z,95715.98
2019-05-21T13:13:54.087Z,95716.14
2019-05-21T13:15:02.035Z,95730.59
2019-05-21T13:16:09.447Z,95718.35
2019-05-21T13:17:17.428Z,95720.62
2019-05-21T13:18:24.661Z,95718.69
2019-05-21T13:19:32.673Z,95722.30
2019-05-21T13:20:39.913Z,95720.03
2019-05-21T13:21:47.983Z,95734.39
2019-05-21T13:22:55.178Z,95730.78
2019-05-21T13:24:03.150Z,95729.34
2019-05-21T13:25:10.665Z,95735.55
2019-05-21T13:26:18.619Z,95738.49
2019-05-21T13:27:25.856Z,95741.63
2019-05-21T13:28:33.886Z,95737.08